Time;durP1;ratioP1;P1;durP2;ratioP2;P2;SDS_P1;SDS_P2;PMS_P1;PMS_P2;Temp;Humidity;BMP_temperature;BMP_pressure;BME280_temperature;BME280_humidity;BME280_pressure;Samples;Min_cycle;Max_cycle;Signal;HPM_P1;HPM_P2
2020/12/15 00:01:22;;;;;;;2.60;2.40;;;;;;;;;;5091078;28;20229;-58
2020/12/15 00:03:49;;;;;;;3.17;2.35;;;;;;;;;;5095812;28;20170;-58
2020/12/15 00:06:15;;;;;;;3.63;2.30;;;;;;;;;;5095347;28;20182;-58
2020/12/15 00:08:41;;;;;;;4.80;2.13;;;;;;;;;;5095566;28;20193;-58
2020/12/15 00:11:07;;;;;;;3.15;2.50;;;;;;;;;;5095795;28;20207;-58
2020/12/15 00:13:33;;;;;;;2.03;1.92;;;;;;;;;;5095043;28;20185;-58
2020/12/15 00:15:59;;;;;;;3.50;2.35;;;;;;;;;;5080296;28;20731;-58
2020/12/15 00:18:25;;;;;;;2.10;1.90;;;;;;;;;;5085999;28;20204;-58
2020/12/15 00:20:51;;;;;;;2.20;2.00;;;;;;;;;;5095078;28;20311;-58
2020/12/15 00:23:17;;;;;;;4.28;2.30;;;;;;;;;;5095223;28;20190;-58
2020/12/15 00:25:43;;;;;;;2.20;2.00;;;;;;;;;;5094554;28;20182;-58
2020/12/15 00:28:09;;;;;;;2.58;2.20;;;;;;;;;;5087327;28;20454;-58
2020/12/15 00:30:35;;;;;;;3.10;2.25;;;;;;;;;;5075237;28;20217;-58
2020/12/15 00:33:01;;;;;;;2.10;1.90;;;;;;;;;;5093826;28;20537;-58
2020/12/15 00:35:27;;;;;;;3.00;2.20;;;;;;;;;;5094985;28;20203;-58
2020/12/15 00:37:53;;;;;;;2.28;2.08;;;;;;;;;;5077116;28;20539;-58
2020/12/15 00:40:20;;;;;;;2.40;2.10;;;;;;;;;;5075433;28;20179;-58
2020/12/15 00:42:46;;;;;;;2.95;1.85;;;;;;;;;;5111045;28;20250;-58
2020/12/15 00:45:12;;;;;;;2.28;1.80;;;;;;;;;;5114362;28;20548;-58
2020/12/15 00:47:38;;;;;;;2.28;2.03;;;;;;;;;;5107564;28;20183;-58
2020/12/15 00:50:06;;;;;;;2.80;1.80;;;;;;;;;;5094357;28;20205;-58
2020/12/15 00:52:32;;;;;;;2.00;1.88;;;;;;;;;;5095043;28;20185;-58
2020/12/15 00:54:58;;;;;;;2.10;1.90;;;;;;;;;;5088298;28;20171;-58
2020/12/15 00:57:24;;;;;;;2.00;1.85;;;;;;;;;;5076929;28;20557;-58
2020/12/15 00:59:53;;;;;;;2.00;1.90;;;;;;;;;;5094241;28;20204;-58
2020/12/15 01:02:19;;;;;;;2.05;1.85;;;;;;;;;;5095579;28;20588;-58
2020/12/15 01:04:45;;;;;;;1.60;1.50;;;;;;;;;;5092994;28;20186;-58
2020/12/15 01:07:11;;;;;;;1.83;1.70;;;;;;;;;;5095344;28;20178;-58
2020/12/15 01:09:37;;;;;;;2.40;2.00;;;;;;;;;;5094513;28;20500;-58
2020/12/15 01:12:13;;;;;;;1.80;1.70;;;;;;;;;;5095040;28;20174;-58
2020/12/15 01:14:39;;;;;;;1.80;1.70;;;;;;;;;;5094017;28;20174;-58
2020/12/15 01:17:09;;;;;;;2.50;1.90;;;;;;;;;;5094668;28;20174;-58
2020/12/15 01:19:35;;;;;;;1.73;1.63;;;;;;;;;;5085749;28;20182;-58
2020/12/15 01:22:01;;;;;;;1.58;1.48;;;;;;;;;;5082900;28;20185;-58
2020/12/15 01:24:27;;;;;;;1.90;1.60;;;;;;;;;;5094702;28;20190;-58
2020/12/15 01:26:53;;;;;;;1.65;1.55;;;;;;;;;;5094693;28;20181;-58
2020/12/15 01:29:19;;;;;;;1.70;1.55;;;;;;;;;;5078433;28;20179;-58
2020/12/15 01:31:45;;;;;;;2.40;1.70;;;;;;;;;;5078316;28;20174;-58
2020/12/15 01:34:11;;;;;;;1.70;1.60;;;;;;;;;;5088186;28;20191;-58
2020/12/15 01:36:37;;;;;;;1.75;1.60;;;;;;;;;;5098763;28;20170;-58
2020/12/15 01:39:03;;;;;;;1.90;1.70;;;;;;;;;;5097359;28;20219;-58
2020/12/15 01:41:29;;;;;;;1.73;1.63;;;;;;;;;;5105893;28;20185;-58
2020/12/15 01:43:56;;;;;;;1.55;1.45;;;;;;;;;;5118627;28;20246;-58
2020/12/15 01:46:23;;;;;;;1.75;1.63;;;;;;;;;;5090659;28;20170;-58
2020/12/15 01:48:49;;;;;;;2.90;1.67;;;;;;;;;;5097790;28;20753;-58
2020/12/15 01:51:16;;;;;;;1.70;1.60;;;;;;;;;;5098435;28;20201;-58
2020/12/15 01:53:44;;;;;;;1.70;1.60;;;;;;;;;;5098036;28;20189;-58
2020/12/15 01:56:10;;;;;;;1.60;1.50;;;;;;;;;;5079945;28;20186;-58
2020/12/15 01:58:37;;;;;;;1.70;1.60;;;;;;;;;;5087729;28;20196;-58
2020/12/15 02:01:03;;;;;;;1.73;1.63;;;;;;;;;;5098076;28;20194;-58
2020/12/15 02:03:29;;;;;;;1.60;1.50;;;;;;;;;;5098337;28;20189;-58
2020/12/15 02:05:55;;;;;;;1.67;1.58;;;;;;;;;;5096807;28;20185;-58
2020/12/15 02:08:21;;;;;;;1.70;1.50;;;;;;;;;;5096779;28;20186;-58
2020/12/15 02:10:48;;;;;;;1.63;1.52;;;;;;;;;;5086425;28;20608;-58
2020/12/15 02:13:14;;;;;;;2.00;1.80;;;;;;;;;;5098145;28;20596;-58
2020/12/15 02:15:40;;;;;;;1.73;1.48;;;;;;;;;;5095995;28;20170;-58
2020/12/15 02:18:07;;;;;;;1.92;1.77;;;;;;;;;;5088255;28;20572;-58
2020/12/15 02:20:33;;;;;;;1.50;1.40;;;;;;;;;;5077950;28;20437;-58
2020/12/15 02:22:59;;;;;;;1.50;1.40;;;;;;;;;;5087532;28;20565;-58
2020/12/15 02:25:25;;;;;;;1.58;1.48;;;;;;;;;;5097182;28;20211;-58
2020/12/15 02:27:51;;;;;;;1.67;1.58;;;;;;;;;;5094798;28;20228;-58
2020/12/15 02:30:17;;;;;;;1.60;1.50;;;;;;;;;;5084154;28;20232;-58
2020/12/15 02:32:43;;;;;;;1.85;1.45;;;;;;;;;;5085205;28;20252;-59
2020/12/15 02:35:09;;;;;;;1.65;1.40;;;;;;;;;;5097177;28;20265;-58
2020/12/15 02:37:35;;;;;;;1.40;1.30;;;;;;;;;;5096937;28;20606;-58
2020/12/15 02:40:02;;;;;;;1.65;1.55;;;;;;;;;;5097425;28;20169;-58
2020/12/15 02:42:31;;;;;;;1.70;1.60;;;;;;;;;;5101461;28;20725;-58
2020/12/15 02:44:57;;;;;;;1.63;1.52;;;;;;;;;;5096354;28;20189;-58
2020/12/15 02:47:24;;;;;;;1.50;1.40;;;;;;;;;;5096772;28;20459;-58
2020/12/15 02:49:50;;;;;;;2.17;1.70;;;;;;;;;;5096997;28;20198;-58
2020/12/15 02:52:16;;;;;;;1.60;1.50;;;;;;;;;;5096200;28;20299;-58
2020/12/15 02:54:42;;;;;;;1.40;1.30;;;;;;;;;;5096569;28;20212;-58
2020/12/15 02:57:08;;;;;;;1.50;1.40;;;;;;;;;;5095026;28;20178;-58
2020/12/15 02:59:34;;;;;;;1.60;1.50;;;;;;;;;;5095887;28;20186;-58
2020/12/15 03:02:00;;;;;;;1.20;1.10;;;;;;;;;;5094846;28;20280;-58
2020/12/15 03:04:26;;;;;;;1.23;1.20;;;;;;;;;;5095824;28;20188;-58
2020/12/15 03:06:52;;;;;;;1.33;1.30;;;;;;;;;;5095754;28;20184;-58
2020/12/15 03:09:18;;;;;;;1.58;1.40;;;;;;;;;;5080244;28;20312;-58
2020/12/15 03:11:44;;;;;;;1.10;1.10;;;;;;;;;;5083682;28;20241;-58
2020/12/15 03:14:10;;;;;;;1.60;1.40;;;;;;;;;;5095311;28;20285;-58
2020/12/15 03:16:36;;;;;;;1.48;1.38;;;;;;;;;;5096214;28;20257;-58
2020/12/15 03:19:02;;;;;;;1.25;1.15;;;;;;;;;;5096423;28;20264;-58
2020/12/15 03:21:30;;;;;;;1.20;1.20;;;;;;;;;;5096318;28;20174;-58
2020/12/15 03:23:56;;;;;;;1.35;1.25;;;;;;;;;;5091565;28;20213;-58
2020/12/15 03:26:23;;;;;;;1.65;1.55;;;;;;;;;;5075980;28;20182;-58
2020/12/15 03:28:49;;;;;;;1.17;1.13;;;;;;;;;;5093384;28;20192;-58
2020/12/15 03:31:15;;;;;;;1.50;1.40;;;;;;;;;;5096570;28;20194;-58
2020/12/15 03:33:42;;;;;;;1.60;1.50;;;;;;;;;;5094596;28;20506;-58
2020/12/15 03:36:08;;;;;;;1.40;1.30;;;;;;;;;;5094673;28;20216;-58
2020/12/15 03:38:34;;;;;;;1.42;1.20;;;;;;;;;;5095792;28;20189;-58
2020/12/15 03:41:00;;;;;;;1.40;1.30;;;;;;;;;;5099688;28;20591;-58
2020/12/15 03:43:26;;;;;;;1.30;1.20;;;;;;;;;;5102563;28;20188;-58
2020/12/15 03:45:52;;;;;;;1.23;1.13;;;;;;;;;;5094711;28;20186;-58
2020/12/15 03:48:18;;;;;;;1.40;1.30;;;;;;;;;;5086236;28;20210;-58
2020/12/15 03:50:44;;;;;;;1.58;1.38;;;;;;;;;;5075426;28;20194;-58
2020/12/15 03:53:10;;;;;;;1.30;1.20;;;;;;;;;;5075890;28;20182;-58
2020/12/15 03:55:36;;;;;;;1.27;1.17;;;;;;;;;;5075191;28;20182;-58
2020/12/15 03:58:02;;;;;;;1.35;1.25;;;;;;;;;;5085596;28;20570;-58
2020/12/15 04:00:28;;;;;;;1.30;1.20;;;;;;;;;;5086376;28;20577;-58
2020/12/15 04:02:54;;;;;;;1.40;1.30;;;;;;;;;;5082764;28;20185;-57
2020/12/15 04:05:20;;;;;;;1.45;1.35;;;;;;;;;;5095302;28;20254;-57
2020/12/15 04:07:46;;;;;;;1.88;1.23;;;;;;;;;;5087253;28;20188;-57
2020/12/15 04:10:12;;;;;;;1.23;1.13;;;;;;;;;;5095452;28;20320;-58
2020/12/15 04:12:38;;;;;;;1.08;1.00;;;;;;;;;;5095047;28;20169;-57
2020/12/15 04:15:07;;;;;;;1.23;1.13;;;;;;;;;;5094833;28;20184;-57
2020/12/15 04:17:36;;;;;;;1.30;1.20;;;;;;;;;;5095209;28;20181;-58
2020/12/15 04:20:03;;;;;;;1.48;1.20;;;;;;;;;;5094750;28;20220;-57
2020/12/15 04:22:29;;;;;;;1.60;1.50;;;;;;;;;;5082553;28;20170;-57
2020/12/15 04:24:56;;;;;;;1.10;1.10;;;;;;;;;;5095143;28;20228;-57
2020/12/15 04:27:22;;;;;;;1.30;1.20;;;;;;;;;;5095830;28;20213;-57
2020/12/15 04:29:48;;;;;;;1.30;1.20;;;;;;;;;;5095216;28;20205;-57
2020/12/15 04:32:14;;;;;;;1.33;1.23;;;;;;;;;;5094818;28;20188;-57
2020/12/15 04:34:40;;;;;;;1.27;1.17;;;;;;;;;;5089725;28;20182;-58
2020/12/15 04:37:06;;;;;;;1.30;1.20;;;;;;;;;;5081174;28;20236;-58
2020/12/15 04:39:32;;;;;;;1.23;1.20;;;;;;;;;;5076315;28;20186;-57
2020/12/15 04:41:58;;;;;;;1.20;1.15;;;;;;;;;;5098132;28;20567;-57
2020/12/15 04:44:25;;;;;;;1.35;1.25;;;;;;;;;;5094307;28;20205;-57
2020/12/15 04:47:12;;;;;;;1.45;1.35;;;;;;;;;;5087315;28;20174;-57
2020/12/15 04:49:48;;;;;;;1.33;1.10;;;;;;;;;;5089067;28;20208;-57
2020/12/15 04:52:18;;;;;;;1.20;1.10;;;;;;;;;;5094078;28;20174;-57
2020/12/15 04:54:45;;;;;;;1.40;1.30;;;;;;;;;;5074571;28;20221;-57
2020/12/15 04:57:14;;;;;;;1.63;1.20;;;;;;;;;;5075173;28;20561;-57
2020/12/15 04:59:42;;;;;;;1.50;1.40;;;;;;;;;;5079832;28;20178;-58
2020/12/15 05:02:08;;;;;;;1.08;1.08;;;;;;;;;;5075247;28;20198;-58
2020/12/15 05:04:41;;;;;;;1.50;1.40;;;;;;;;;;5076642;28;20469;-58
2020/12/15 05:07:08;;;;;;;1.33;1.20;;;;;;;;;;5079105;28;20206;-58
2020/12/15 05:09:35;;;;;;;1.30;1.08;;;;;;;;;;5078093;28;20183;-57
2020/12/15 05:12:01;;;;;;;1.52;1.42;;;;;;;;;;5077446;28;20170;-57
2020/12/15 05:14:27;;;;;;;1.20;1.15;;;;;;;;;;5097255;28;20189;-57
2020/12/15 05:16:54;;;;;;;1.25;1.15;;;;;;;;;;5097757;28;20299;-57
2020/12/15 05:19:20;;;;;;;1.42;1.33;;;;;;;;;;5099156;28;20488;-57
2020/12/15 05:21:56;;;;;;;1.35;1.20;;;;;;;;;;5098742;28;20261;-63
2020/12/15 05:24:29;;;;;;;2.95;1.48;;;;;;;;;;5090559;28;20189;-62
2020/12/15 05:26:55;;;;;;;3.03;1.70;;;;;;;;;;5089544;28;20277;-62
2020/12/15 05:29:22;;;;;;;8.32;1.95;;;;;;;;;;5078591;28;20183;-62
2020/12/15 05:31:48;;;;;;;6.47;1.67;;;;;;;;;;5089634;28;20220;-62
2020/12/15 05:34:22;;;;;;;3.85;2.08;;;;;;;;;;5097590;28;20178;-62
2020/12/15 05:36:49;;;;;;;5.75;1.88;;;;;;;;;;5097952;28;20425;-62
2020/12/15 05:39:15;;;;;;;4.18;1.58;;;;;;;;;;5098352;28;20190;-62
2020/12/15 05:41:41;;;;;;;5.25;1.70;;;;;;;;;;5107438;28;20192;-62
2020/12/15 05:44:07;;;;;;;4.88;1.70;;;;;;;;;;5101392;28;20236;-61
2020/12/15 05:46:34;;;;;;;6.22;1.83;;;;;;;;;;5081358;28;20194;-62
2020/12/15 05:49:07;;;;;;;3.63;1.77;;;;;;;;;;5097601;28;20189;-62
2020/12/15 05:51:39;;;;;;;4.60;2.05;;;;;;;;;;5097472;28;20213;-62
2020/12/15 05:54:06;;;;;;;5.90;1.80;;;;;;;;;;5097031;28;20181;-62
2020/12/15 05:56:33;;;;;;;3.13;1.90;;;;;;;;;;5097949;28;20227;-61
2020/12/15 05:58:59;;;;;;;6.13;2.00;;;;;;;;;;5097138;28;20181;-62
2020/12/15 06:01:25;;;;;;;5.78;2.40;;;;;;;;;;5098243;28;20185;-62
2020/12/15 06:03:57;;;;;;;4.20;2.03;;;;;;;;;;5084204;28;20190;-62
2020/12/15 06:06:28;;;;;;;5.07;2.10;;;;;;;;;;5077149;28;20171;-62
2020/12/15 06:08:54;;;;;;;5.15;2.28;;;;;;;;;;5080424;28;20197;-62
2020/12/15 06:11:21;;;;;;;4.20;1.90;;;;;;;;;;5087452;28;20206;-62
2020/12/15 06:13:47;;;;;;;5.15;2.13;;;;;;;;;;5081615;28;20178;-62
2020/12/15 06:16:13;;;;;;;3.05;1.85;;;;;;;;;;5076279;28;20174;-62
2020/12/15 06:18:39;;;;;;;4.05;2.00;;;;;;;;;;5078717;28;20182;-62
2020/12/15 06:21:10;;;;;;;5.65;2.33;;;;;;;;;;5077446;28;20178;-62
2020/12/15 06:23:36;;;;;;;5.63;2.17;;;;;;;;;;5087465;28;20197;-62
2020/12/15 06:26:02;;;;;;;4.22;2.40;;;;;;;;;;5096554;28;20264;-62
2020/12/15 06:28:32;;;;;;;5.35;2.20;;;;;;;;;;5097194;28;20623;-62
2020/12/15 06:30:59;;;;;;;3.75;1.80;;;;;;;;;;5097134;28;20240;-62
2020/12/15 06:33:33;;;;;;;2.92;2.30;;;;;;;;;;5097048;28;20184;-62
2020/12/15 06:35:59;;;;;;;4.18;2.13;;;;;;;;;;5086107;28;20186;-62
2020/12/15 06:38:25;;;;;;;4.22;1.80;;;;;;;;;;5076994;28;20186;-62
2020/12/15 06:40:51;;;;;;;4.40;2.40;;;;;;;;;;5079509;28;20304;-63
2020/12/15 06:43:43;;;;;;;5.20;2.35;;;;;;;;;;5086161;28;20183;-63
2020/12/15 06:46:11;;;;;;;2.58;1.75;;;;;;;;;;5089109;28;20205;-62
2020/12/15 06:48:37;;;;;;;3.17;1.73;;;;;;;;;;5096639;28;20580;-62
2020/12/15 06:51:03;;;;;;;2.25;1.50;;;;;;;;;;5097027;28;20628;-62
2020/12/15 06:53:29;;;;;;;2.28;1.83;;;;;;;;;;5096684;28;20261;-62
2020/12/15 06:55:59;;;;;;;3.03;1.92;;;;;;;;;;5095530;28;20173;-62
2020/12/15 06:58:25;;;;;;;5.82;1.70;;;;;;;;;;5096688;28;20228;-62
2020/12/15 07:00:52;;;;;;;4.88;2.40;;;;;;;;;;5096349;28;20189;-62
2020/12/15 07:03:33;;;;;;;2.45;1.90;;;;;;;;;;5096855;28;20174;-63
2020/12/15 07:06:09;;;;;;;3.00;1.85;;;;;;;;;;5094307;28;20181;-62
2020/12/15 07:08:35;;;;;;;3.42;2.25;;;;;;;;;;5076453;28;20185;-62
2020/12/15 07:11:01;;;;;;;3.25;1.95;;;;;;;;;;5090583;28;20201;-62
2020/12/15 07:13:27;;;;;;;3.13;1.98;;;;;;;;;;5077045;28;20205;-62
2020/12/15 07:15:53;;;;;;;2.05;1.60;;;;;;;;;;5075285;28;20231;-62
2020/12/15 07:18:19;;;;;;;2.08;1.80;;;;;;;;;;5077586;28;20617;-62
2020/12/15 07:20:45;;;;;;;2.92;1.88;;;;;;;;;;5076346;28;20174;-62
2020/12/15 07:23:11;;;;;;;1.95;1.75;;;;;;;;;;5078101;28;20240;-62
2020/12/15 07:25:37;;;;;;;3.13;2.28;;;;;;;;;;5077106;28;20218;-62
2020/12/15 07:28:03;;;;;;;3.92;1.73;;;;;;;;;;5075459;28;20186;-63
2020/12/15 07:30:29;;;;;;;2.85;1.90;;;;;;;;;;5095633;28;20284;-62
2020/12/15 07:32:55;;;;;;;3.33;2.45;;;;;;;;;;5095623;28;20190;-62
2020/12/15 07:35:23;;;;;;;2.65;1.80;;;;;;;;;;5089487;28;20193;-62
2020/12/15 07:37:49;;;;;;;2.45;1.70;;;;;;;;;;5077362;28;20253;-62
2020/12/15 07:40:17;;;;;;;2.22;1.73;;;;;;;;;;5096441;28;20170;-62
2020/12/15 07:42:53;;;;;;;2.75;2.10;;;;;;;;;;5113934;28;20208;-62
2020/12/15 07:45:19;;;;;;;1.90;1.77;;;;;;;;;;5115573;28;20169;-62
2020/12/15 07:47:45;;;;;;;1.50;1.40;;;;;;;;;;5095311;28;20196;-62
2020/12/15 07:50:11;;;;;;;1.88;1.60;;;;;;;;;;5095831;28;20193;-62
2020/12/15 07:52:39;;;;;;;3.33;1.48;;;;;;;;;;5087706;28;20178;-62
2020/12/15 07:55:06;;;;;;;1.80;1.67;;;;;;;;;;5075180;28;20461;-62
2020/12/15 07:57:33;;;;;;;2.30;2.08;;;;;;;;;;5086205;28;20560;-62
2020/12/15 08:00:22;;;;;;;2.20;2.00;;;;;;;;;;5095822;28;20615;-62
2020/12/15 08:02:49;;;;;;;2.90;2.10;;;;;;;;;;5082681;28;20200;-62
2020/12/15 08:05:24;;;;;;;2.53;2.00;;;;;;;;;;5094919;28;20197;-62
2020/12/15 08:07:57;;;;;;;2.15;1.98;;;;;;;;;;5091250;28;20192;-62
2020/12/15 08:10:27;;;;;;;2.35;1.95;;;;;;;;;;5095959;28;20209;-62
2020/12/15 08:12:57;;;;;;;2.25;1.90;;;;;;;;;;5095123;28;20181;-62
2020/12/15 08:15:23;;;;;;;2.70;1.98;;;;;;;;;;5094322;28;20530;-62
2020/12/15 08:17:50;;;;;;;2.20;2.00;;;;;;;;;;5094749;28;20531;-62
2020/12/15 08:20:16;;;;;;;1.98;1.80;;;;;;;;;;5081447;28;20182;-62
2020/12/15 08:22:45;;;;;;;1.85;1.73;;;;;;;;;;5076026;28;20180;-62
2020/12/15 08:25:11;;;;;;;2.38;2.00;;;;;;;;;;5075136;28;20170;-62
2020/12/15 08:27:37;;;;;;;1.63;1.50;;;;;;;;;;5075131;28;20711;-62
2020/12/15 08:30:20;;;;;;;2.40;2.13;;;;;;;;;;5075150;28;20485;-62
2020/12/15 08:32:47;;;;;;;1.92;1.70;;;;;;;;;;5083592;28;20178;-61
2020/12/15 08:35:14;;;;;;;2.47;1.75;;;;;;;;;;5074845;28;20548;-62
2020/12/15 08:37:42;;;;;;;2.25;1.90;;;;;;;;;;5093236;28;20186;-61
2020/12/15 08:40:10;;;;;;;3.03;1.50;;;;;;;;;;5090120;28;20213;-62
2020/12/15 08:42:39;;;;;;;1.95;1.75;;;;;;;;;;5113068;28;20177;-62
2020/12/15 08:45:18;;;;;;;2.08;1.88;;;;;;;;;;5097838;28;20254;-62
2020/12/15 08:47:47;;;;;;;2.00;1.83;;;;;;;;;;5100440;28;20520;-63
2020/12/15 08:50:14;;;;;;;2.42;1.90;;;;;;;;;;5119956;28;20283;-62
2020/12/15 08:52:41;;;;;;;1.73;1.63;;;;;;;;;;5119318;28;20564;-61
2020/12/15 08:55:07;;;;;;;3.22;2.35;;;;;;;;;;5101578;28;20458;-61
2020/12/15 08:57:33;;;;;;;3.85;2.10;;;;;;;;;;5092646;28;20186;-61
2020/12/15 09:00:33;;;;;;;1.60;1.50;;;;;;;;;;5099327;28;20174;-62
2020/12/15 09:03:05;;;;;;;2.28;1.90;;;;;;;;;;5080762;28;20192;-62
2020/12/15 09:05:31;;;;;;;2.15;1.80;;;;;;;;;;5098599;28;20531;-61
2020/12/15 09:08:04;;;;;;;2.63;2.15;;;;;;;;;;5094764;28;20264;-62
2020/12/15 09:10:31;;;;;;;2.10;1.90;;;;;;;;;;5099154;28;20219;-62
2020/12/15 09:12:57;;;;;;;1.75;1.65;;;;;;;;;;5097132;28;20516;-62
2020/12/15 09:15:23;;;;;;;1.85;1.73;;;;;;;;;;5098186;28;20161;-62
2020/12/15 09:17:49;;;;;;;2.70;1.92;;;;;;;;;;5084389;28;20228;-62
2020/12/15 09:20:24;;;;;;;2.05;1.85;;;;;;;;;;5078738;28;20462;-62
2020/12/15 09:22:50;;;;;;;2.35;1.95;;;;;;;;;;5078150;28;20193;-62
2020/12/15 09:25:16;;;;;;;2.33;1.88;;;;;;;;;;5078259;28;20179;-62
2020/12/15 09:27:46;;;;;;;2.22;1.77;;;;;;;;;;5078408;28;20186;-62
2020/12/15 09:30:13;;;;;;;2.40;2.20;;;;;;;;;;5091999;28;20233;-62
2020/12/15 09:32:41;;;;;;;1.88;1.77;;;;;;;;;;5099004;28;20178;-62
2020/12/15 09:35:07;;;;;;;2.22;1.90;;;;;;;;;;5097635;28;20468;-62
2020/12/15 09:37:34;;;;;;;2.13;1.90;;;;;;;;;;5098216;28;20174;-62
2020/12/15 09:40:01;;;;;;;1.88;1.75;;;;;;;;;;5098457;28;20252;-62
2020/12/15 09:42:27;;;;;;;1.92;1.80;;;;;;;;;;5110107;28;20580;-62
2020/12/15 09:44:53;;;;;;;2.38;2.17;;;;;;;;;;5101438;28;20190;-63
2020/12/15 09:47:19;;;;;;;2.05;1.90;;;;;;;;;;5097346;28;20620;-63
2020/12/15 09:49:45;;;;;;;2.20;2.00;;;;;;;;;;5097881;28;20185;-63
2020/12/15 09:52:11;;;;;;;2.13;1.92;;;;;;;;;;5097561;28;20193;-62
2020/12/15 09:54:37;;;;;;;3.40;2.00;;;;;;;;;;5079216;28;20220;-63
2020/12/15 09:57:03;;;;;;;2.13;1.92;;;;;;;;;;5077730;28;20174;-63
2020/12/15 09:59:29;;;;;;;2.20;2.00;;;;;;;;;;5077960;28;20217;-63
2020/12/15 10:01:55;;;;;;;2.20;2.00;;;;;;;;;;5077761;28;20171;-62
2020/12/15 10:04:21;;;;;;;2.20;2.00;;;;;;;;;;5097047;28;20200;-62
2020/12/15 10:06:48;;;;;;;2.30;2.05;;;;;;;;;;5097012;28;20186;-63
2020/12/15 10:09:15;;;;;;;2.00;1.90;;;;;;;;;;5098096;28;20256;-62
2020/12/15 10:11:41;;;;;;;2.03;1.83;;;;;;;;;;5097176;28;20201;-62
2020/12/15 10:14:07;;;;;;;1.95;1.85;;;;;;;;;;5081338;28;20554;-63
2020/12/15 10:16:33;;;;;;;2.13;1.92;;;;;;;;;;5097538;28;20181;-62
2020/12/15 10:18:59;;;;;;;2.60;2.05;;;;;;;;;;5097162;28;20226;-62
2020/12/15 10:21:26;;;;;;;2.08;1.88;;;;;;;;;;5094787;28;20177;-63
2020/12/15 10:23:53;;;;;;;1.77;1.67;;;;;;;;;;5087011;28;20196;-62
2020/12/15 10:26:22;;;;;;;2.17;1.98;;;;;;;;;;5088540;28;20494;-63
2020/12/15 10:28:49;;;;;;;3.15;2.10;;;;;;;;;;5096336;28;20182;-63
2020/12/15 10:31:15;;;;;;;2.17;2.08;;;;;;;;;;5097345;28;20204;-62
2020/12/15 10:33:41;;;;;;;2.78;2.15;;;;;;;;;;5091650;28;20194;-63
2020/12/15 10:36:07;;;;;;;2.72;2.00;;;;;;;;;;5081388;28;20579;-63
2020/12/15 10:38:33;;;;;;;2.90;2.08;;;;;;;;;;5093304;28;20190;-63
2020/12/15 10:40:59;;;;;;;2.30;2.10;;;;;;;;;;5094977;28;20201;-63
2020/12/15 10:43:26;;;;;;;2.97;2.15;;;;;;;;;;5105553;28;20196;-63
2020/12/15 10:45:52;;;;;;;2.40;2.10;;;;;;;;;;5096434;28;20265;-62
2020/12/15 10:48:18;;;;;;;2.15;1.92;;;;;;;;;;5097967;28;20166;-62
2020/12/15 10:50:44;;;;;;;2.40;2.10;;;;;;;;;;5092910;28;20206;-62
2020/12/15 10:53:10;;;;;;;1.70;1.60;;;;;;;;;;5096475;28;20177;-63
2020/12/15 10:55:36;;;;;;;2.40;2.20;;;;;;;;;;5095773;28;20178;-62
2020/12/15 10:58:03;;;;;;;4.22;2.10;;;;;;;;;;5096336;28;20178;-62
2020/12/15 11:00:29;;;;;;;2.53;2.08;;;;;;;;;;5097305;28;20204;-63
2020/12/15 11:02:55;;;;;;;2.65;2.30;;;;;;;;;;5095312;28;20228;-62
2020/12/15 11:05:20;;;;;;;3.97;2.17;;;;;;;;;;5096576;28;20178;-62
2020/12/15 11:07:47;;;;;;;97.93;17.58;;;;;;;;;;5096718;28;20182;-62
2020/12/15 11:10:13;;;;;;;74.72;18.20;;;;;;;;;;5085141;28;20217;-62
2020/12/15 11:12:39;;;;;;;84.30;19.35;;;;;;;;;;5086335;28;20678;-62
2020/12/15 11:15:05;;;;;;;70.30;16.92;;;;;;;;;;5094664;28;20552;-63
2020/12/15 11:17:31;;;;;;;65.10;16.27;;;;;;;;;;5096387;28;20182;-63
2020/12/15 11:19:57;;;;;;;53.88;14.30;;;;;;;;;;5096006;28;20181;-62
2020/12/15 11:22:24;;;;;;;67.30;14.48;;;;;;;;;;5086328;28;20261;-62
2020/12/15 11:24:50;;;;;;;49.45;14.25;;;;;;;;;;5095003;28;20598;-62
2020/12/15 11:27:16;;;;;;;50.40;13.63;;;;;;;;;;5093745;28;20265;-62
2020/12/15 11:29:42;;;;;;;48.88;13.85;;;;;;;;;;5096245;28;20201;-62
2020/12/15 11:32:08;;;;;;;50.03;11.80;;;;;;;;;;5096628;28;20177;-62
2020/12/15 11:34:34;;;;;;;40.42;11.85;;;;;;;;;;5096078;28;20174;-63
2020/12/15 11:37:00;;;;;;;40.72;11.82;;;;;;;;;;5096248;28;20180;-62
2020/12/15 11:39:26;;;;;;;43.72;11.73;;;;;;;;;;5095271;28;20624;-62
2020/12/15 11:41:52;;;;;;;35.83;11.75;;;;;;;;;;5106071;28;20188;-63
2020/12/15 11:44:18;;;;;;;36.95;11.65;;;;;;;;;;5076300;28;20178;-62
2020/12/15 11:46:45;;;;;;;42.50;11.82;;;;;;;;;;5074947;28;20179;-62
2020/12/15 11:49:11;;;;;;;40.63;11.23;;;;;;;;;;5077930;28;20442;-63
2020/12/15 11:51:37;;;;;;;36.35;11.10;;;;;;;;;;5076189;28;20202;-62
2020/12/15 11:54:03;;;;;;;40.92;10.32;;;;;;;;;;5074487;28;20568;-62
2020/12/15 11:56:29;;;;;;;35.95;11.07;;;;;;;;;;5075776;28;20202;-62
2020/12/15 11:58:55;;;;;;;31.90;10.80;;;;;;;;;;5076410;28;20175;-63
2020/12/15 12:01:21;;;;;;;29.90;10.13;;;;;;;;;;5076789;28;20267;-63
2020/12/15 12:03:47;;;;;;;26.88;10.63;;;;;;;;;;5075216;28;20175;-62
2020/12/15 12:06:14;;;;;;;29.60;9.90;;;;;;;;;;5075251;28;20264;-63
2020/12/15 12:08:40;;;;;;;29.33;9.88;;;;;;;;;;5075167;28;20178;-64
2020/12/15 12:11:06;;;;;;;32.20;9.77;;;;;;;;;;5082435;28;20593;-63
2020/12/15 12:13:32;;;;;;;27.42;9.88;;;;;;;;;;5075918;28;20213;-62
2020/12/15 12:16:01;;;;;;;29.42;10.43;;;;;;;;;;5075146;28;20178;-62
2020/12/15 12:18:27;;;;;;;26.83;9.43;;;;;;;;;;5075215;28;20171;-62
2020/12/15 12:20:53;;;;;;;24.27;9.38;;;;;;;;;;5081766;28;20220;-63
2020/12/15 12:23:18;;;;;;;23.70;8.82;;;;;;;;;;5094930;28;20194;-62
2020/12/15 12:25:44;;;;;;;22.75;8.60;;;;;;;;;;5094562;28;20260;-62
2020/12/15 12:28:10;;;;;;;25.75;8.70;;;;;;;;;;5095609;28;20178;-62
2020/12/15 12:30:36;;;;;;;26.55;8.75;;;;;;;;;;5095481;28;20206;-62
2020/12/15 12:33:02;;;;;;;19.92;8.68;;;;;;;;;;5093319;28;20189;-62
2020/12/15 12:35:28;;;;;;;25.67;8.32;;;;;;;;;;5094726;28;20217;-63
2020/12/15 12:37:54;;;;;;;22.17;8.88;;;;;;;;;;5094885;28;20208;-62
2020/12/15 12:40:20;;;;;;;19.52;8.43;;;;;;;;;;5095729;28;20663;-62
2020/12/15 12:42:48;;;;;;;22.17;8.40;;;;;;;;;;5102528;28;20190;-63
2020/12/15 12:45:14;;;;;;;20.63;8.50;;;;;;;;;;5073170;28;20611;-62
2020/12/15 12:47:40;;;;;;;21.42;7.78;;;;;;;;;;5074619;28;20454;-62
2020/12/15 12:50:06;;;;;;;17.25;6.82;;;;;;;;;;5077772;28;20197;-62
2020/12/15 12:52:32;;;;;;;20.52;8.55;;;;;;;;;;5097789;28;20466;-62
2020/12/15 12:54:58;;;;;;;20.98;8.25;;;;;;;;;;5093597;28;20186;-62
2020/12/15 12:57:24;;;;;;;18.17;7.88;;;;;;;;;;5094936;28;20447;-62
2020/12/15 12:59:50;;;;;;;19.98;7.03;;;;;;;;;;5084673;28;20190;-63
2020/12/15 13:02:16;;;;;;;19.77;7.57;;;;;;;;;;5087167;28;20307;-62
2020/12/15 13:04:42;;;;;;;17.55;6.70;;;;;;;;;;5092339;28;20197;-62
2020/12/15 13:07:08;;;;;;;16.13;7.00;;;;;;;;;;5076191;28;20246;-62
2020/12/15 13:09:34;;;;;;;18.35;6.68;;;;;;;;;;5077929;28;20190;-62
2020/12/15 13:12:00;;;;;;;16.00;7.00;;;;;;;;;;5074591;28;20292;-63
2020/12/15 13:14:29;;;;;;;13.07;6.40;;;;;;;;;;5074266;28;20197;-62
2020/12/15 13:16:55;;;;;;;16.05;6.75;;;;;;;;;;5082020;28;20565;-62
2020/12/15 13:19:21;;;;;;;15.85;6.82;;;;;;;;;;5074792;28;20258;-63
2020/12/15 13:21:47;;;;;;;18.83;7.70;;;;;;;;;;5075448;28;20445;-62
2020/12/15 13:24:13;;;;;;;20.77;7.43;;;;;;;;;;5094491;28;20204;-62
2020/12/15 13:26:42;;;;;;;20.73;7.18;;;;;;;;;;5086279;28;20190;-62
2020/12/15 13:29:08;;;;;;;20.02;6.78;;;;;;;;;;5097433;28;20527;-63
2020/12/15 13:31:34;;;;;;;18.35;7.13;;;;;;;;;;5084047;28;20198;-62
2020/12/15 13:34:00;;;;;;;17.70;6.50;;;;;;;;;;5086417;28;20269;-63
2020/12/15 13:36:26;;;;;;;15.75;6.20;;;;;;;;;;5084776;28;20437;-62
2020/12/15 13:38:52;;;;;;;18.48;7.07;;;;;;;;;;5078235;28;20209;-63
2020/12/15 13:41:19;;;;;;;15.75;6.43;;;;;;;;;;5086060;28;20181;-62
2020/12/15 13:43:45;;;;;;;17.33;6.20;;;;;;;;;;5098028;28;20177;-62
2020/12/15 13:46:11;;;;;;;18.33;6.97;;;;;;;;;;5094416;28;20556;-62
2020/12/15 13:48:37;;;;;;;17.65;6.72;;;;;;;;;;5097896;28;20190;-63
2020/12/15 13:51:03;;;;;;;14.65;6.38;;;;;;;;;;5085924;28;20298;-62
2020/12/15 13:53:29;;;;;;;17.98;6.82;;;;;;;;;;5086367;28;20209;-63
2020/12/15 13:55:55;;;;;;;17.08;6.10;;;;;;;;;;5085683;28;20572;-62
2020/12/15 13:58:21;;;;;;;14.15;6.43;;;;;;;;;;5097482;28;20174;-62
2020/12/15 14:00:47;;;;;;;12.68;5.68;;;;;;;;;;5095509;28;20224;-62
2020/12/15 14:03:13;;;;;;;12.48;5.95;;;;;;;;;;5076961;28;20460;-63
2020/12/15 14:05:39;;;;;;;11.52;5.40;;;;;;;;;;5082756;28;20240;-62
2020/12/15 14:08:06;;;;;;;12.98;5.82;;;;;;;;;;5097706;28;20178;-62
2020/12/15 14:10:32;;;;;;;13.18;5.40;;;;;;;;;;5084304;28;20206;-62
2020/12/15 14:12:58;;;;;;;16.00;5.82;;;;;;;;;;5087489;28;20189;-62
2020/12/15 14:15:24;;;;;;;12.90;6.10;;;;;;;;;;5076576;28;20166;-62
2020/12/15 14:17:50;;;;;;;12.80;5.30;;;;;;;;;;5085846;28;20189;-62
2020/12/15 14:20:16;;;;;;;11.68;5.25;;;;;;;;;;5097800;28;20499;-62
2020/12/15 14:22:42;;;;;;;11.75;5.68;;;;;;;;;;5085799;28;20593;-62
2020/12/15 14:25:08;;;;;;;16.17;6.05;;;;;;;;;;5096011;28;20236;-62
2020/12/15 14:27:34;;;;;;;9.88;5.43;;;;;;;;;;5096752;28;20192;-62
2020/12/15 14:30:00;;;;;;;9.60;5.07;;;;;;;;;;5092983;28;20201;-62
2020/12/15 14:32:26;;;;;;;9.32;4.97;;;;;;;;;;5096660;28;20671;-62
2020/12/15 14:34:52;;;;;;;10.15;5.18;;;;;;;;;;5078199;28;20317;-63
2020/12/15 14:37:18;;;;;;;11.98;5.25;;;;;;;;;;5097173;28;20196;-62